Time;durP1;ratioP1;P1;durP2;ratioP2;P2;SDS_P1;SDS_P2;PMS_P1;PMS_P2;Temp;Humidity;BMP_temperature;BMP_pressure;BME280_temperature;BME280_humidity;BME280_pressure;Samples;Min_cycle;Max_cycle;Signal;HPM_P1;HPM_P2
2021/06/14 00:01:02;;;;;;;12.90;7.83;;;16.20;86.20;;;;;;5051784;28;20437;-46
2021/06/14 00:03:28;;;;;;;11.97;7.83;;;16.20;86.40;;;;;;5051766;28;20467;-46
2021/06/14 00:05:55;;;;;;;13.77;7.93;;;16.20;86.80;;;;;;5051867;28;20933;-46
2021/06/14 00:08:24;;;;;;;14.07;7.50;;;16.10;87.00;;;;;;5051821;28;20445;-45
2021/06/14 00:10:53;;;;;;;9.20;6.80;;;16.10;87.50;;;;;;5052111;28;20427;-47
2021/06/14 00:13:22;;;;;;;12.33;7.83;;;16.10;87.60;;;;;;5051887;28;20609;-47
2021/06/14 00:15:50;;;;;;;12.27;8.07;;;16.10;87.80;;;;;;5051888;28;20461;-47
2021/06/14 00:18:18;;;;;;;13.07;7.47;;;16.00;88.00;;;;;;5051345;28;20433;-47
2021/06/14 00:20:51;;;;;;;11.97;7.97;;;15.80;88.00;;;;;;5051612;28;20430;-47
2021/06/14 00:23:18;;;;;;;22.03;13.33;;;16.20;88.80;;;;;;5033869;28;20491;-46
2021/06/14 00:25:45;;;;;;;15.23;8.90;;;15.90;88.70;;;;;;5052146;28;20473;-46
2021/06/14 00:28:11;;;;;;;11.73;9.10;;;15.90;89.00;;;;;;5051339;28;20431;-46
2021/06/14 00:30:42;;;;;;;12.17;8.40;;;15.90;89.40;;;;;;5051805;28;20438;-47
2021/06/14 00:33:10;;;;;;;12.53;7.40;;;15.80;89.60;;;;;;5051735;28;20956;-48
2021/06/14 00:35:37;;;;;;;13.93;10.50;;;15.80;90.00;;;;;;5051373;28;20752;-46
2021/06/14 00:38:03;;;;;;;11.33;8.17;;;15.50;89.80;;;;;;5051370;28;20439;-47
2021/06/14 00:40:31;;;;;;;19.93;9.90;;;15.70;90.10;;;;;;5051263;28;20478;-46
2021/06/14 00:42:58;;;;;;;11.70;7.70;;;15.70;90.20;;;;;;5033591;28;20438;-47
2021/06/14 00:45:29;;;;;;;15.33;8.07;;;15.50;90.20;;;;;;5033384;28;20511;-46
2021/06/14 00:47:57;;;;;;;12.13;7.50;;;15.70;90.50;;;;;;5051966;28;20468;-47
2021/06/14 00:50:34;;;;;;;16.40;9.70;;;15.50;90.50;;;;;;5033461;28;20450;-46
2021/06/14 00:53:03;;;;;;;19.57;12.10;;;15.50;90.60;;;;;;5051411;28;20950;-46
2021/06/14 00:55:30;;;;;;;16.57;10.07;;;15.70;90.90;;;;;;5032930;28;20920;-47
2021/06/14 00:57:57;;;;;;;15.07;9.87;;;15.50;91.00;;;;;;5033552;28;20461;-46
2021/06/14 01:00:24;;;;;;;12.47;8.57;;;15.60;91.30;;;;;;5033386;28;20446;-46
2021/06/14 01:02:58;;;;;;;16.83;9.00;;;15.50;91.30;;;;;;5051144;28;20446;-46
2021/06/14 01:05:27;;;;;;;17.10;8.57;;;15.60;91.60;;;;;;5032965;28;20657;-47
2021/06/14 01:07:54;;;;;;;11.30;8.50;;;15.50;91.70;;;;;;5051450;28;20430;-46
2021/06/14 01:10:21;;;;;;;13.23;8.33;;;15.50;91.90;;;;;;5051492;28;20431;-45
2021/06/14 01:12:58;;;;;;;14.40;9.27;;;15.40;92.00;;;;;;5051731;28;20870;-47
2021/06/14 01:15:29;;;;;;;15.37;10.47;;;15.40;92.10;;;;;;5034604;28;20494;-47
2021/06/14 01:18:04;;;;;;;14.40;8.70;;;15.30;92.20;;;;;;5037084;28;20459;-52
2021/06/14 01:20:49;;;;;;;11.90;8.60;;;15.30;92.50;;;;;;5055307;28;20439;-47
2021/06/14 01:23:25;;;;;;;10.20;8.23;;;15.20;92.70;;;;;;5037282;28;20446;-46
2021/06/14 01:25:56;;;;;;;13.00;7.77;;;15.20;92.80;;;;;;5037166;28;20501;-47
2021/06/14 01:28:29;;;;;;;11.03;8.30;;;15.20;92.90;;;;;;5054567;28;20433;-47
2021/06/14 01:30:58;;;;;;;21.10;9.07;;;15.20;93.00;;;;;;5037040;28;20540;-47
2021/06/14 01:33:28;;;;;;;12.90;9.10;;;15.20;93.10;;;;;;5036993;28;20554;-46
2021/06/14 01:35:58;;;;;;;9.87;8.07;;;15.20;93.20;;;;;;5054589;28;20474;-47
2021/06/14 01:38:30;;;;;;;14.80;9.17;;;15.40;93.60;;;;;;5036676;28;20534;-47
2021/06/14 01:41:03;;;;;;;11.23;8.50;;;15.10;93.60;;;;;;5054781;28;20437;-48
2021/06/14 01:43:34;;;;;;;10.63;7.90;;;15.10;93.70;;;;;;5054587;28;20426;-49
2021/06/14 01:46:05;;;;;;;10.63;8.23;;;15.10;93.90;;;;;;5036559;28;20923;-47
2021/06/14 01:48:33;;;;;;;14.37;8.07;;;15.30;94.10;;;;;;5054210;28;20437;-46
2021/06/14 01:51:01;;;;;;;13.93;8.50;;;15.00;94.10;;;;;;5036524;28;20457;-48
2021/06/14 01:53:29;;;;;;;13.70;8.00;;;15.10;94.10;;;;;;5036258;28;20444;-49
2021/06/14 01:55:57;;;;;;;11.13;7.60;;;15.00;94.30;;;;;;5036125;28;20481;-46
2021/06/14 01:58:24;;;;;;;10.50;7.17;;;14.50;94.10;;;;;;5035877;28;20468;-46
2021/06/14 02:01:00;;;;;;;11.90;8.33;;;14.90;94.50;;;;;;5054105;28;20437;-48
2021/06/14 02:03:37;;;;;;;18.23;8.87;;;14.90;94.70;;;;;;5054215;28;20438;-47
2021/06/14 02:06:27;;;;;;;13.30;8.40;;;14.80;94.80;;;;;;5035976;28;20469;-47
2021/06/14 02:08:54;;;;;;;15.03;8.73;;;14.80;94.90;;;;;;5053556;28;20432;-47
2021/06/14 02:11:22;;;;;;;15.57;8.73;;;14.80;95.00;;;;;;5036160;28;20859;-48
2021/06/14 02:13:54;;;;;;;12.93;8.10;;;14.80;95.10;;;;;;5036346;28;20448;-47
2021/06/14 02:16:23;;;;;;;13.10;8.37;;;14.90;95.40;;;;;;5053737;28;20508;-48
2021/06/14 02:18:51;;;;;;;13.53;9.37;;;14.80;95.40;;;;;;5035529;28;20478;-46
2021/06/14 02:21:19;;;;;;;14.63;9.20;;;14.70;95.50;;;;;;5036031;28;20457;-47
2021/06/14 02:23:47;;;;;;;12.27;8.27;;;14.80;95.70;;;;;;5035886;28;20448;-45
2021/06/14 02:26:14;;;;;;;9.90;8.70;;;14.60;95.80;;;;;;5053747;28;20992;-45
2021/06/14 02:28:42;;;;;;;11.80;8.70;;;14.70;95.90;;;;;;5035481;28;20456;-47
2021/06/14 02:31:10;;;;;;;15.43;8.80;;;14.60;96.00;;;;;;5053814;28;20428;-47
2021/06/14 02:33:39;;;;;;;14.73;9.13;;;14.70;96.20;;;;;;5053694;28;20923;-47
2021/06/14 02:36:11;;;;;;;13.23;8.10;;;14.80;96.30;;;;;;5053542;28;20549;-47
2021/06/14 02:38:40;;;;;;;15.83;8.70;;;14.60;96.30;;;;;;5053192;28;20447;-46
2021/06/14 02:41:07;;;;;;;10.13;7.83;;;14.60;96.40;;;;;;5035462;28;20475;-46
2021/06/14 02:43:35;;;;;;;14.00;7.80;;;14.60;96.50;;;;;;5035244;28;20449;-46
2021/06/14 02:46:04;;;;;;;10.60;8.13;;;14.60;96.60;;;;;;5035243;28;20469;-46
2021/06/14 02:48:35;;;;;;;12.77;8.57;;;14.60;96.70;;;;;;5035031;28;20454;-48
2021/06/14 02:51:06;;;;;;;17.60;8.50;;;14.60;96.70;;;;;;5053253;28;20519;-47
2021/06/14 02:53:35;;;;;;;15.43;8.30;;;14.60;96.90;;;;;;5053140;28;20882;-46
2021/06/14 02:56:05;;;;;;;12.60;8.10;;;14.60;97.00;;;;;;5034875;28;20921;-46
2021/06/14 02:58:35;;;;;;;12.07;8.90;;;14.60;97.00;;;;;;5033898;28;20439;-48
2021/06/14 03:01:05;;;;;;;14.57;8.50;;;14.60;97.10;;;;;;5034112;28;20548;-46
2021/06/14 03:03:33;;;;;;;12.73;8.67;;;14.60;97.10;;;;;;5035100;28;20507;-46
2021/06/14 03:05:59;;;;;;;16.23;8.40;;;14.60;97.20;;;;;;5035013;28;20559;-45
2021/06/14 03:08:32;;;;;;;21.27;8.53;;;14.60;97.30;;;;;;5034562;28;20488;-46
2021/06/14 03:10:59;;;;;;;16.13;9.20;;;14.80;97.50;;;;;;5052996;28;20446;-47
2021/06/14 03:13:26;;;;;;;15.80;8.67;;;14.60;97.50;;;;;;5034718;28;20464;-47
2021/06/14 03:15:55;;;;;;;16.43;9.07;;;14.60;97.50;;;;;;5034471;28;20505;-46
2021/06/14 03:18:25;;;;;;;15.47;9.57;;;14.50;97.50;;;;;;5052321;28;21004;-47
2021/06/14 03:20:55;;;;;;;13.10;8.47;;;14.60;97.70;;;;;;5034596;28;20457;-47
2021/06/14 03:23:22;;;;;;;15.67;8.53;;;14.80;97.70;;;;;;5052638;28;20568;-45
2021/06/14 03:25:51;;;;;;;17.50;9.17;;;14.70;97.80;;;;;;5052504;28;20976;-46
2021/06/14 03:28:20;;;;;;;16.10;9.27;;;14.70;97.80;;;;;;5052486;28;20471;-46
2021/06/14 03:30:47;;;;;;;12.30;8.07;;;14.70;97.90;;;;;;5052334;28;20536;-49
2021/06/14 03:33:18;;;;;;;19.10;8.60;;;14.70;97.90;;;;;;5052445;28;20528;-46
2021/06/14 03:35:46;;;;;;;13.10;8.63;;;14.20;97.70;;;;;;5052223;28;20485;-46
2021/06/14 03:38:13;;;;;;;12.43;9.10;;;14.50;98.00;;;;;;5051638;28;20430;-46
2021/06/14 03:40:40;;;;;;;18.00;8.70;;;14.80;98.20;;;;;;5052164;28;20937;-46
2021/06/14 03:43:08;;;;;;;16.63;9.80;;;14.70;98.10;;;;;;5052079;28;20894;-44
2021/06/14 03:45:35;;;;;;;16.70;8.40;;;14.80;98.20;;;;;;5052109;28;20446;-46
2021/06/14 03:48:02;;;;;;;19.30;9.23;;;14.90;98.30;;;;;;5051773;28;20951;-48
2021/06/14 03:50:28;;;;;;;16.80;9.00;;;14.90;98.40;;;;;;5051940;28;20432;-46
2021/06/14 03:52:55;;;;;;;12.73;8.43;;;14.90;98.30;;;;;;5052053;28;20502;-47
2021/06/14 03:55:23;;;;;;;18.53;9.27;;;14.80;98.30;;;;;;5051762;28;20549;-46
2021/06/14 03:57:49;;;;;;;18.47;9.63;;;15.10;98.40;;;;;;5051668;28;20473;-47
2021/06/14 04:00:19;;;;;;;20.60;10.20;;;15.20;98.40;;;;;;5051574;28;21005;-46
2021/06/14 04:02:45;;;;;;;13.27;8.87;;;15.30;98.40;;;;;;5051853;28;20532;-48
2021/06/14 04:05:24;;;;;;;20.97;9.80;;;15.40;98.40;;;;;;5034019;28;20477;-46
2021/06/14 04:08:11;;;;;;;13.77;8.90;;;15.50;98.20;;;;;;5051395;28;20426;-46
2021/06/14 04:10:39;;;;;;;16.10;9.67;;;15.70;98.20;;;;;;5051758;28;20453;-45
2021/06/14 04:13:07;;;;;;;18.60;8.80;;;15.80;98.00;;;;;;5051329;28;20437;-49
2021/06/14 04:15:35;;;;;;;13.23;9.23;;;15.90;97.90;;;;;;5051213;28;20513;-47
2021/06/14 04:18:02;;;;;;;21.07;9.40;;;16.10;97.70;;;;;;5051267;28;20525;-48
2021/06/14 04:20:28;;;;;;;16.03;10.67;;;16.30;97.50;;;;;;5051335;28;20454;-47
2021/06/14 04:22:55;;;;;;;18.27;9.97;;;16.20;97.20;;;;;;5051278;28;20530;-47
2021/06/14 04:25:22;;;;;;;18.90;8.90;;;16.70;97.10;;;;;;5051287;28;20476;-47
2021/06/14 04:27:48;;;;;;;16.63;9.77;;;16.70;96.80;;;;;;5051325;28;20972;-48
2021/06/14 04:30:16;;;;;;;25.40;10.40;;;16.90;96.50;;;;;;5051150;28;20762;-48
2021/06/14 04:32:44;;;;;;;14.37;9.00;;;17.00;96.00;;;;;;5051360;28;20548;-48
2021/06/14 04:35:13;;;;;;;17.80;9.90;;;17.10;95.70;;;;;;5051295;28;20557;-46
2021/06/14 04:37:39;;;;;;;14.53;9.17;;;17.30;95.30;;;;;;5051378;28;20980;-47
2021/06/14 04:40:07;;;;;;;16.33;9.40;;;17.30;94.90;;;;;;5051020;28;20430;-48
2021/06/14 04:42:34;;;;;;;18.50;9.23;;;17.60;94.60;;;;;;5052633;28;20789;-48
2021/06/14 04:45:01;;;;;;;20.00;10.20;;;17.60;94.20;;;;;;5033679;28;20439;-47
2021/06/14 04:47:27;;;;;;;14.10;8.63;;;17.70;93.80;;;;;;5033258;28;20988;-47
2021/06/14 04:49:57;;;;;;;15.07;8.83;;;17.80;93.50;;;;;;5050029;28;20445;-48
2021/06/14 04:52:24;;;;;;;17.80;9.47;;;18.00;93.00;;;;;;5051104;28;20916;-46
2021/06/14 04:54:50;;;;;;;10.80;7.60;;;18.20;92.60;;;;;;5051054;28;20454;-47
2021/06/14 04:57:17;;;;;;;12.10;7.40;;;18.10;91.80;;;;;;5051316;28;20485;-46
2021/06/14 04:59:44;;;;;;;15.00;8.10;;;18.50;91.60;;;;;;5050822;28;20428;-46
2021/06/14 05:02:10;;;;;;;14.93;7.97;;;18.80;91.40;;;;;;5050968;28;20485;-47
2021/06/14 05:04:37;;;;;;;11.50;6.93;;;18.50;90.70;;;;;;5051180;28;20606;-46
2021/06/14 05:07:05;;;;;;;14.13;8.13;;;18.60;90.10;;;;;;5051139;28;21076;-46
2021/06/14 05:09:32;;;;;;;9.17;6.80;;;19.10;90.10;;;;;;5050687;28;20429;-46
2021/06/14 05:11:59;;;;;;;14.17;7.73;;;19.10;88.90;;;;;;5051080;28;20451;-49
2021/06/14 05:14:25;;;;;;;12.10;6.73;;;19.20;88.30;;;;;;5050598;28;20434;-47
2021/06/14 05:16:52;;;;;;;12.93;6.73;;;19.50;87.90;;;;;;5050499;28;20495;-47
2021/06/14 05:19:19;;;;;;;12.50;6.30;;;19.40;86.90;;;;;;5050024;28;20440;-47
2021/06/14 05:21:46;;;;;;;11.23;7.10;;;19.40;85.70;;;;;;5050246;28;20521;-47
2021/06/14 05:24:14;;;;;;;13.27;8.40;;;19.60;85.00;;;;;;5050573;28;20792;-48
2021/06/14 05:26:40;;;;;;;11.43;7.00;;;19.70;84.30;;;;;;5050248;28;20710;-46
2021/06/14 05:29:07;;;;;;;10.23;6.47;;;19.70;83.00;;;;;;5050025;28;20875;-48
2021/06/14 05:31:34;;;;;;;12.77;7.50;;;19.60;82.00;;;;;;5050464;28;20444;-47
2021/06/14 05:34:01;;;;;;;11.17;6.73;;;19.90;82.00;;;;;;5032507;28;20557;-49
2021/06/14 05:36:28;;;;;;;9.63;6.30;;;20.00;81.40;;;;;;5031981;28;20478;-47
2021/06/14 05:38:54;;;;;;;8.50;6.13;;;20.10;80.80;;;;;;5050031;28;20438;-47
2021/06/14 05:41:22;;;;;;;11.60;6.17;;;20.00;80.60;;;;;;5050287;28;20491;-50
2021/06/14 05:43:49;;;;;;;16.30;8.50;;;19.90;80.20;;;;;;5050007;28;20434;-49
2021/06/14 05:46:16;;;;;;;13.47;7.20;;;19.90;80.00;;;;;;5049746;28;20517;-48
2021/06/14 05:48:42;;;;;;;13.47;8.77;;;20.30;80.20;;;;;;5050269;28;20427;-47
2021/06/14 05:51:09;;;;;;;14.93;6.57;;;20.40;79.60;;;;;;5050658;28;20515;-50
2021/06/14 05:53:36;;;;;;;9.70;6.67;;;20.70;79.50;;;;;;5050521;28;20428;-49
2021/06/14 05:56:03;;;;;;;11.70;7.90;;;20.50;78.90;;;;;;5050246;28;20487;-48
2021/06/14 05:58:31;;;;;;;9.10;6.53;;;20.60;78.80;;;;;;5050317;28;20970;-49
2021/06/14 06:00:58;;;;;;;11.60;6.70;;;20.70;78.40;;;;;;5051273;28;20456;-47
2021/06/14 06:03:24;;;;;;;11.20;7.20;;;21.10;78.60;;;;;;5053863;28;20435;-47
2021/06/14 06:05:51;;;;;;;14.60;6.27;;;20.60;77.90;;;;;;5054335;28;20452;-46
2021/06/14 06:08:18;;;;;;;19.37;7.00;;;20.90;77.80;;;;;;5053995;28;20431;-48
2021/06/14 06:10:46;;;;;;;18.23;7.33;;;20.60;77.00;;;;;;5054355;28;20794;-47
2021/06/14 06:13:13;;;;;;;17.33;7.30;;;20.90;77.20;;;;;;5053704;28;20447;-47
2021/06/14 06:15:41;;;;;;;117.70;21.00;;;20.90;77.10;;;;;;5035376;28;20479;-46
2021/06/14 06:18:07;;;;;;;499.60;57.43;;;21.00;76.90;;;;;;5053402;28;20435;-46
2021/06/14 06:20:34;;;;;;;230.87;22.77;;;21.00;76.70;;;;;;5053881;28;20946;-46
2021/06/14 06:23:01;;;;;;;47.63;9.30;;;21.00;76.30;;;;;;5053947;28;21005;-47
2021/06/14 06:25:29;;;;;;;37.23;7.40;;;21.10;76.10;;;;;;5053696;28;20471;-47
2021/06/14 06:27:56;;;;;;;30.33;6.63;;;21.10;75.90;;;;;;5053696;28;20522;-47
2021/06/14 06:30:25;;;;;;;13.13;6.80;;;21.20;75.40;;;;;;5053536;28;20787;-47
2021/06/14 06:32:53;;;;;;;32.37;8.63;;;21.30;75.20;;;;;;5053798;28;20531;-47
2021/06/14 06:35:21;;;;;;;48.47;9.37;;;21.30;74.80;;;;;;5052974;28;20543;-47
2021/06/14 06:37:48;;;;;;;11.87;6.30;;;21.30;74.90;;;;;;5053364;28;20538;-47
2021/06/14 06:40:16;;;;;;;10.33;5.60;;;21.40;74.50;;;;;;5053130;28;20965;-47
2021/06/14 06:42:44;;;;;;;9.57;5.57;;;21.40;74.30;;;;;;5054180;28;20436;-48
2021/06/14 06:45:13;;;;;;;11.27;5.50;;;21.40;74.20;;;;;;5035013;28;20543;-47
2021/06/14 06:47:40;;;;;;;10.70;5.50;;;21.40;74.10;;;;;;5053166;28;20445;-47
2021/06/14 06:50:09;;;;;;;11.80;5.30;;;21.40;74.10;;;;;;5052957;28;20818;-48
2021/06/14 06:52:37;;;;;;;10.67;6.63;;;21.40;73.80;;;;;;5035019;28;20576;-48
2021/06/14 06:55:06;;;;;;;15.90;5.70;;;21.50;74.00;;;;;;5053166;28;20431;-48
2021/06/14 06:57:33;;;;;;;7.40;4.80;;;21.50;74.00;;;;;;5052924;28;20478;-48
2021/06/14 06:59:59;;;;;;;9.33;6.27;;;21.50;74.00;;;;;;5052641;28;20428;-47
2021/06/14 07:02:26;;;;;;;13.97;6.23;;;21.50;73.80;;;;;;5052751;28;20813;-47
2021/06/14 07:04:53;;;;;;;11.20;5.80;;;21.50;73.80;;;;;;5052839;28;20427;-49
2021/06/14 07:07:21;;;;;;;12.17;5.70;;;21.80;74.00;;;;;;5052595;28;20579;-48
2021/06/14 07:09:47;;;;;;;7.60;4.97;;;21.50;73.60;;;;;;5053619;28;20532;-47
2021/06/14 07:12:15;;;;;;;7.20;4.70;;;21.40;73.50;;;;;;5052762;28;20535;-47
2021/06/14 07:14:42;;;;;;;83.63;10.43;;;21.50;73.50;;;;;;5052834;28;20491;-46
2021/06/14 07:17:09;;;;;;;19.37;6.83;;;21.40;73.70;;;;;;5052417;28;20485;-48
2021/06/14 07:19:36;;;;;;;10.47;5.33;;;21.40;73.30;;;;;;5052406;28;20811;-48
2021/06/14 07:22:03;;;;;;;12.43;6.10;;;21.40;73.20;;;;;;5052664;28;20957;-47
2021/06/14 07:24:31;;;;;;;10.33;5.30;;;21.40;73.30;;;;;;5052379;28;20444;-48
2021/06/14 07:26:58;;;;;;;10.43;5.27;;;21.50;73.30;;;;;;5052282;28;20990;-46
2021/06/14 07:29:25;;;;;;;14.80;6.63;;;21.50;73.00;;;;;;5052228;28;20439;-47
2021/06/14 07:31:51;;;;;;;10.73;6.40;;;21.50;73.00;;;;;;5052206;28;20507;-49
2021/06/14 07:34:18;;;;;;;7.17;5.30;;;21.50;72.90;;;;;;5051923;28;20821;-47
2021/06/14 07:36:44;;;;;;;9.77;5.77;;;21.50;72.90;;;;;;5052143;28;20477;-46
2021/06/14 07:39:11;;;;;;;9.00;5.00;;;21.50;72.60;;;;;;5052050;28;20428;-45
2021/06/14 07:41:39;;;;;;;10.03;5.47;;;21.50;72.70;;;;;;5052105;28;20445;-47
2021/06/14 07:44:06;;;;;;;9.70;5.00;;;21.50;72.60;;;;;;5052294;28;20430;-47
2021/06/14 07:46:33;;;;;;;12.43;5.33;;;21.50;72.60;;;;;;5051891;28;20923;-47
2021/06/14 07:49:00;;;;;;;8.80;5.00;;;21.60;72.60;;;;;;5051680;28;20741;-46
2021/06/14 07:51:26;;;;;;;9.80;5.23;;;21.50;72.00;;;;;;5052016;28;20519;-48
2021/06/14 07:53:53;;;;;;;12.93;5.73;;;21.50;72.10;;;;;;5051600;28;20859;-47
2021/06/14 07:56:21;;;;;;;10.73;5.43;;;21.50;72.40;;;;;;5051478;28;20485;-47
2021/06/14 07:58:49;;;;;;;11.00;5.53;;;21.60;73.40;;;;;;5051391;28;20532;-47
2021/06/14 08:01:16;;;;;;;9.47;5.17;;;21.60;72.40;;;;;;5052013;28;20611;-47
2021/06/14 08:03:46;;;;;;;6.63;4.80;;;21.60;72.60;;;;;;5051691;28;20528;-47
2021/06/14 08:06:13;;;;;;;5.87;4.53;;;21.60;72.40;;;;;;5051773;28;20529;-48
2021/06/14 08:08:39;;;;;;;11.83;5.30;;;21.50;72.40;;;;;;5051263;28;20468;-48
2021/06/14 08:11:07;;;;;;;10.50;5.17;;;21.60;72.40;;;;;;5051586;28;20440;-46
2021/06/14 08:13:34;;;;;;;7.70;5.00;;;21.60;72.40;;;;;;5051499;28;20494;-49
2021/06/14 08:16:03;;;;;;;7.20;4.50;;;21.60;72.10;;;;;;5051011;28;21022;-48
2021/06/14 08:18:37;;;;;;;8.30;4.93;;;21.70;71.90;;;;;;5051350;28;20441;-47
2021/06/14 08:21:18;;;;;;;8.63;5.50;;;21.70;71.60;;;;;;5051603;28;20516;-47
2021/06/14 08:26:31;;;;;;;10.63;5.40;;;21.70;71.70;;;;;;5051711;28;20564;-47
2021/06/14 08:28:59;;;;;;;7.43;4.57;;;21.70;72.50;;;;;;5051046;28;20494;-47
2021/06/14 08:31:31;;;;;;;9.23;4.83;;;21.70;71.50;;;;;;5033651;28;20518;-46
2021/06/14 08:33:58;;;;;;;11.90;4.70;;;21.80;71.30;;;;;;5051442;28;20918;-47
2021/06/14 08:36:25;;;;;;;8.60;4.13;;;21.80;71.00;;;;;;5050971;28;20508;-46
2021/06/14 08:38:52;;;;;;;9.00;5.27;;;21.80;70.80;;;;;;5050856;28;20461;-46
2021/06/14 08:41:20;;;;;;;9.63;4.73;;;21.90;70.60;;;;;;5051018;28;20445;-48
2021/06/14 08:43:49;;;;;;;10.33;4.70;;;21.90;70.40;;;;;;5050892;28;20589;-46
2021/06/14 08:46:17;;;;;;;8.53;4.60;;;21.90;70.00;;;;;;5051407;28;20461;-47
2021/06/14 08:48:46;;;;;;;5.90;3.97;;;21.60;69.30;;;;;;5050509;28;20436;-46
2021/06/14 08:51:14;;;;;;;6.13;4.20;;;21.90;68.60;;;;;;5050901;28;20528;-47
2021/06/14 08:53:42;;;;;;;11.57;4.03;;;22.00;68.50;;;;;;5051227;28;20428;-50
2021/06/14 08:56:09;;;;;;;7.47;4.07;;;22.00;68.70;;;;;;5050567;28;20501;-46
2021/06/14 08:58:36;;;;;;;8.17;4.30;;;22.00;68.00;;;;;;5050720;28;20434;-47
2021/06/14 09:01:06;;;;;;;7.17;4.73;;;22.10;68.10;;;;;;5050918;28;21033;-46
2021/06/14 09:03:33;;;;;;;12.47;6.83;;;22.10;68.10;;;;;;5050824;28;20467;-47
2021/06/14 09:06:00;;;;;;;14.27;6.10;;;22.10;67.50;;;;;;5050614;28;20458;-48
2021/06/14 09:08:27;;;;;;;6.90;4.17;;;22.10;67.30;;;;;;5050257;28;20833;-47
2021/06/14 09:10:55;;;;;;;9.57;4.40;;;22.10;67.40;;;;;;5032243;28;20875;-48
2021/06/14 09:13:23;;;;;;;7.70;4.30;;;22.10;67.50;;;;;;5050553;28;20437;-49
2021/06/14 09:15:55;;;;;;;7.17;3.57;;;22.10;67.10;;;;;;5050382;28;20466;-48
2021/06/14 09:18:23;;;;;;;6.67;3.20;;;22.20;66.00;;;;;;5049959;28;20479;-48
2021/06/14 09:20:55;;;;;;;8.90;3.93;;;22.20;65.90;;;;;;5050549;28;20473;-47
2021/06/14 09:23:23;;;;;;;14.40;6.43;;;22.30;65.60;;;;;;5050332;28;21029;-48
2021/06/14 09:25:51;;;;;;;15.63;4.07;;;22.30;65.50;;;;;;5050428;28;20550;-48
2021/06/14 09:28:18;;;;;;;11.60;4.90;;;22.30;65.60;;;;;;5050260;28;20947;-50
2021/06/14 09:30:45;;;;;;;8.17;4.57;;;22.40;65.10;;;;;;5050432;28;20457;-47
2021/06/14 09:33:23;;;;;;;7.60;3.97;;;22.40;64.80;;;;;;5050623;28;20442;-46
2021/06/14 09:35:52;;;;;;;5.93;4.03;;;22.40;64.20;;;;;;5032735;28;20481;-49
2021/06/14 09:38:20;;;;;;;7.27;3.77;;;22.40;64.40;;;;;;5055035;28;20488;-48
2021/06/14 09:40:50;;;;;;;7.40;3.90;;;22.40;65.00;;;;;;5036534;28;20442;-49
2021/06/14 09:43:27;;;;;;;4.90;3.67;;;22.40;64.70;;;;;;5036490;28;20458;-47
2021/06/14 09:45:54;;;;;;;8.83;3.97;;;22.40;64.30;;;;;;5054102;28;20461;-47
2021/06/14 09:48:23;;;;;;;8.60;3.57;;;22.40;64.60;;;;;;5053664;28;20545;-48
2021/06/14 09:50:52;;;;;;;6.60;3.90;;;22.40;64.50;;;;;;5054563;28;20439;-47
2021/06/14 09:53:22;;;;;;;8.13;4.27;;;22.40;64.40;;;;;;5054626;28;20446;-47
2021/06/14 09:55:52;;;;;;;6.90;3.90;;;22.40;64.00;;;;;;5053726;28;20461;-48
2021/06/14 09:58:21;;;;;;;10.33;4.30;;;22.40;63.90;;;;;;5053745;28;20484;-50
2021/06/14 10:00:49;;;;;;;7.33;3.67;;;22.50;63.60;;;;;;5053808;28;20435;-48
2021/06/14 10:03:16;;;;;;;10.93;4.43;;;22.50;63.60;;;;;;5053833;28;20975;-47
2021/06/14 10:05:48;;;;;;;6.20;3.83;;;22.50;63.50;;;;;;5053946;28;20446;-47
2021/06/14 10:08:23;;;;;;;7.63;4.00;;;22.50;63.60;;;;;;5053777;28;20469;-48
2021/06/14 10:11:00;;;;;;;5.93;3.57;;;22.60;63.30;;;;;;5053675;28;20435;-48
2021/06/14 10:13:29;;;;;;;8.73;3.97;;;22.60;63.20;;;;;;5053627;28;20430;-49
2021/06/14 10:16:00;;;;;;;7.30;3.67;;;22.60;62.40;;;;;;5053322;28;20452;-50
2021/06/14 10:18:31;;;;;;;5.80;3.87;;;22.70;62.20;;;;;;5053255;28;20478;-50
2021/06/14 10:20:58;;;;;;;5.23;3.67;;;22.70;62.10;;;;;;5053650;28;20583;-49
2021/06/14 10:23:24;;;;;;;9.40;4.10;;;22.60;61.70;;;;;;5053432;28;20435;-49
2021/06/14 10:25:56;;;;;;;7.27;4.03;;;22.60;62.00;;;;;;5053607;28;20959;-50
2021/06/14 10:28:23;;;;;;;6.60;4.00;;;22.60;62.20;;;;;;5053440;28;20492;-49
2021/06/14 10:30:51;;;;;;;7.80;3.30;;;22.70;62.20;;;;;;5035323;28;20446;-50
2021/06/14 10:33:21;;;;;;;9.40;4.20;;;22.80;61.80;;;;;;5053473;28;20935;-50
2021/06/14 10:35:48;;;;;;;6.37;3.97;;;22.80;61.80;;;;;;5053395;28;21016;-50
2021/06/14 10:38:15;;;;;;;8.97;6.30;;;22.80;61.90;;;;;;5052870;28;20506;-49
2021/06/14 10:40:42;;;;;;;7.53;4.20;;;22.90;61.60;;;;;;5053231;28;20431;-51
2021/06/14 10:43:11;;;;;;;6.80;3.23;;;23.10;61.70;;;;;;5053409;28;20949;-48
2021/06/14 10:45:37;;;;;;;9.50;3.93;;;23.00;61.20;;;;;;5053511;28;20483;-50
2021/06/14 10:48:06;;;;;;;7.70;4.10;;;23.00;61.30;;;;;;5051986;28;20436;-49
2021/06/14 10:50:35;;;;;;;5.93;3.60;;;23.00;60.60;;;;;;5053535;28;20433;-49
2021/06/14 10:53:02;;;;;;;7.87;4.63;;;23.00;59.80;;;;;;5035198;28;20543;-49
2021/06/14 10:55:31;;;;;;;5.23;4.03;;;23.10;59.70;;;;;;5053380;28;20830;-49
2021/06/14 10:57:58;;;;;;;10.03;4.00;;;23.00;59.70;;;;;;5052979;28;20798;-49
2021/06/14 11:00:28;;;;;;;7.47;3.70;;;23.30;59.80;;;;;;5052817;28;20475;-49
2021/06/14 11:02:57;;;;;;;8.27;3.87;;;23.10;59.40;;;;;;5052675;28;20431;-50
2021/06/14 11:05:36;;;;;;;7.40;3.87;;;23.20;59.40;;;;;;5052464;28;20450;-49
2021/06/14 11:08:14;;;;;;;6.67;4.20;;;23.20;59.40;;;;;;5052976;28;20437;-49
2021/06/14 11:10:42;;;;;;;5.23;3.20;;;23.30;58.90;;;;;;5053024;28;20423;-49
2021/06/14 11:13:11;;;;;;;7.33;3.80;;;23.30;58.80;;;;;;5052897;28;20858;-49
2021/06/14 11:15:41;;;;;;;9.43;3.43;;;23.30;58.60;;;;;;5052645;28;20901;-49
2021/06/14 11:18:08;;;;;;;6.53;3.30;;;23.20;58.60;;;;;;5051950;28;20490;-49
2021/06/14 11:20:37;;;;;;;4.47;3.20;;;23.20;58.60;;;;;;5052354;28;20960;-49
2021/06/14 11:23:05;;;;;;;6.87;6.17;;;23.20;58.70;;;;;;5052345;28;20876;-49
2021/06/14 11:25:41;;;;;;;6.67;4.20;;;23.20;59.00;;;;;;5052437;28;20448;-50
2021/06/14 11:28:10;;;;;;;6.20;3.80;;;23.30;58.90;;;;;;5051449;28;20446;-50
2021/06/14 11:30:40;;;;;;;10.97;3.70;;;23.40;59.00;;;;;;5051874;28;20440;-49
2021/06/14 11:33:09;;;;;;;4.37;2.77;;;23.40;58.70;;;;;;5052049;28;20791;-49
2021/06/14 11:35:36;;;;;;;4.33;3.13;;;23.40;58.50;;;;;;5052144;28;20828;-49
2021/06/14 11:38:05;;;;;;;13.30;4.00;;;23.40;58.40;;;;;;5051768;28;20849;-48
2021/06/14 11:40:34;;;;;;;8.00;3.30;;;23.50;58.20;;;;;;5052193;28;20520;-50
2021/06/14 11:43:08;;;;;;;7.10;3.37;;;23.50;58.10;;;;;;5051484;28;20527;-50
2021/06/14 11:45:38;;;;;;;4.10;2.57;;;23.60;57.60;;;;;;5052255;28;20461;-50
2021/06/14 11:48:18;;;;;;;5.10;3.40;;;23.60;57.50;;;;;;5051471;28;20441;-48
2021/06/14 11:50:45;;;;;;;5.27;2.90;;;23.60;57.50;;;;;;5052186;28;21081;-49
2021/06/14 11:53:11;;;;;;;8.67;3.77;;;23.60;57.30;;;;;;5051525;28;20935;-48
2021/06/14 11:55:44;;;;;;;7.80;3.50;;;23.70;57.30;;;;;;5051327;28;20502;-50
2021/06/14 11:58:12;;;;;;;5.30;3.80;;;23.70;57.20;;;;;;5051124;28;20937;-49
2021/06/14 12:00:40;;;;;;;5.57;3.00;;;23.70;57.30;;;;;;5051619;28;20438;-51
2021/06/14 12:03:19;;;;;;;6.83;3.47;;;23.70;57.00;;;;;;5051160;28;20628;-50
2021/06/14 12:05:47;;;;;;;7.13;3.33;;;23.70;56.80;;;;;;5051491;28;20499;-50
2021/06/14 12:08:17;;;;;;;5.83;2.70;;;23.70;56.80;;;;;;5051029;28;20544;-49
2021/06/14 12:10:45;;;;;;;5.50;2.57;;;23.70;56.90;;;;;;5051892;28;20434;-49
2021/06/14 12:13:16;;;;;;;2.90;2.40;;;23.70;56.70;;;;;;5051359;28;20455;-49
2021/06/14 12:15:43;;;;;;;25.17;4.97;;;23.60;56.70;;;;;;5051370;28;20461;-49
2021/06/14 12:18:12;;;;;;;5.33;3.23;;;23.80;57.00;;;;;;5050773;28;20478;-50
2021/06/14 12:20:42;;;;;;;8.00;3.20;;;23.80;56.80;;;;;;5051324;28;20429;-49
2021/06/14 12:23:10;;;;;;;4.97;2.73;;;23.80;56.80;;;;;;5051480;28;20436;-50
2021/06/14 12:25:39;;;;;;;5.70;2.80;;;23.80;56.70;;;;;;5051291;28;20464;-50
2021/06/14 12:28:08;;;;;;;4.90;2.70;;;23.80;56.70;;;;;;5051173;28;20826;-50
2021/06/14 12:30:35;;;;;;;6.07;4.13;;;23.80;56.60;;;;;;5050930;28;20440;-50
2021/06/14 12:33:02;;;;;;;5.60;3.10;;;23.60;56.30;;;;;;5051065;28;20867;-50
2021/06/14 12:35:31;;;;;;;5.10;3.10;;;23.90;56.40;;;;;;5050996;28;20921;-50
2021/06/14 12:38:08;;;;;;;4.80;2.80;;;23.90;56.20;;;;;;5032724;28;20547;-49
2021/06/14 12:40:38;;;;;;;6.07;3.60;;;24.00;56.00;;;;;;5051094;28;20513;-50
2021/06/14 12:43:06;;;;;;;7.40;3.10;;;24.10;56.20;;;;;;5050721;28;20448;-49
2021/06/14 12:45:34;;;;;;;5.47;2.73;;;24.10;56.30;;;;;;5050647;28;20451;-49
2021/06/14 12:48:05;;;;;;;5.03;2.57;;;24.20;56.10;;;;;;5050643;28;20460;-49
2021/06/14 12:50:33;;;;;;;6.70;3.83;;;23.90;55.50;;;;;;5050937;28;20428;-48